Time,TemperatureF,DewpointF,PressureIn,WindDirection,WindDirectionDegrees,WindSpeedMPH,WindSpeedGustMPH,Humidity,HourlyPrecipIn,Conditions,Clouds,dailyrainin,SoftwareType,DateUTC
2013-02-23 00:00:00,19.4,14.0,25.06,WSW,245,6.0,13.0,78,0.00,,,0.00,weatherlink.com 1.10,2013-02-23 07:00:00,
2013-02-23 00:15:00,19.9,14.0,25.05,West,278,7.0,14.0,78,0.00,,,0.00,weatherlink.com 1.10,2013-02-23 07:15:00,
2013-02-23 00:30:00,19.6,14.0,25.05,West,260,5.0,11.0,77,0.00,,,0.00,weatherlink.com 1.10,2013-02-23 07:30:00,
2013-02-23 00:45:00,19.6,13.0,25.05,West,271,3.0,9.0,76,0.00,,,0.00,weatherlink.com 1.10,2013-02-23 07:45:00,
2013-02-23 01:00:00,19.0,12.0,25.05,West,277,8.0,12.0,75,0.00,,,0.00,weatherlink.com 1.10,2013-02-23 08:00:00,
2013-02-23 01:15:00,17.8,11.0,25.04,West,271,7.0,9.0,76,0.00,,,0.00,weatherlink.com 1.10,2013-02-23 08:15:00,
2013-02-23 01:30:00,17.1,11.0,25.04,West,278,4.0,10.0,77,0.00,,,0.00,weatherlink.com 1.10,2013-02-23 08:30:00,
2013-02-23 01:45:00,15.6,10.0,25.04,NNW,341,5.0,5.0,78,0.00,,,0.00,weatherlink.com 1.10,2013-02-23 08:45:00,
2013-02-23 02:00:00,16.7,10.0,25.03,West,273,4.0,8.0,76,0.00,,,0.00,weatherlink.com 1.10,2013-02-23 09:00:00,
2013-02-23 02:15:00,16.3,10.0,25.03,West,273,3.0,7.0,77,0.00,,,0.00,weatherlink.com 1.10,2013-02-23 09:15:00,
2013-02-23 02:30:00,15.3,10.0,25.02,SW,229,1.0,8.0,79,0.00,,,0.00,weatherlink.com 1.10,2013-02-23 09:30:00,
2013-02-23 02:45:00,15.7,10.0,25.01,West,262,2.0,9.0,79,0.00,,,0.00,weatherlink.com 1.10,2013-02-23 09:45:00,
2013-02-23 03:00:00,15.4,10.0,25.01,NNW,328,2.0,8.0,79,0.00,,,0.00,weatherlink.com 1.10,2013-02-23 10:00:00,
2013-02-23 03:16:00,14.9,10.0,25.01,SW,222,2.0,3.0,80,0.00,,,0.00,weatherlink.com 1.10,2013-02-23 10:16:00,
2013-02-23 03:31:00,14.8,9.0,25.00,WNW,288,3.0,5.0,79,0.00,,,0.00,weatherlink.com 1.10,2013-02-23 10:31:00,
2013-02-23 03:46:00,14.4,9.0,25.00,WNW,290,5.0,6.0,79,0.00,,,0.00,weatherlink.com 1.10,2013-02-23 10:46:00,
2013-02-23 04:01:00,13.7,9.0,24.99,West,264,3.0,8.0,80,0.00,,,0.00,weatherlink.com 1.10,2013-02-23 11:01:00,
2013-02-23 04:16:00,15.0,10.0,24.99,WNW,290,5.0,10.0,79,0.00,,,0.00,weatherlink.com 1.10,2013-02-23 11:16:00,
2013-02-23 04:31:00,14.8,9.0,24.99,West,281,2.0,9.0,78,0.00,,,0.00,weatherlink.com 1.10,2013-02-23 11:31:00,
2013-02-23 04:46:00,13.8,8.0,24.99,West,271,3.0,7.0,79,0.00,,,0.00,weatherlink.com 1.10,2013-02-23 11:46:00,
2013-02-23 05:01:00,12.4,7.0,24.98,NW,314,3.0,5.0,79,0.00,,,0.00,weatherlink.com 1.10,2013-02-23 12:01:00,
2013-02-23 05:16:00,11.8,7.0,24.98,WNW,298,0.0,4.0,81,0.00,,,0.00,weatherlink.com 1.10,2013-02-23 12:16:00,
2013-02-23 05:31:00,11.4,7.0,24.98,West,274,2.0,4.0,82,0.00,,,0.00,weatherlink.com 1.10,2013-02-23 12:31:00,
2013-02-23 05:46:00,12.4,8.0,24.98,WSW,253,6.0,8.0,83,0.00,,,0.00,weatherlink.com 1.10,2013-02-23 12:46:00,
2013-02-23 06:01:00,13.3,9.0,24.98,WSW,246,3.0,8.0,81,0.00,,,0.00,weatherlink.com 1.10,2013-02-23 13:01:00,
2013-02-23 06:16:00,12.3,7.0,24.98,West,262,2.0,3.0,80,0.00,,,0.00,weatherlink.com 1.10,2013-02-23 13:16:00,
2013-02-23 06:31:00,11.0,6.0,24.97,WSW,238,1.0,3.0,81,0.00,,,0.00,weatherlink.com 1.10,2013-02-23 13:31:00,
2013-02-23 06:46:00,11.1,7.0,24.97,WNW,283,1.0,5.0,83,0.00,,,0.00,weatherlink.com 1.10,2013-02-23 13:46:00,
2013-02-23 07:01:00,12.2,7.0,24.97,West,278,1.0,5.0,81,0.00,,,0.00,weatherlink.com 1.10,2013-02-23 14:01:00,
2013-02-23 07:16:00,13.1,8.0,24.98,WNW,299,3.0,8.0,79,0.00,,,0.00,weatherlink.com 1.10,2013-02-23 14:16:00,
2013-02-23 07:31:00,14.8,9.0,24.97,West,266,5.0,9.0,77,0.00,,,0.00,weatherlink.com 1.10,2013-02-23 14:31:00,
2013-02-23 07:46:00,17.0,10.0,24.98,WSW,248,2.0,8.0,75,0.00,,,0.00,weatherlink.com 1.10,2013-02-23 14:46:00,
2013-02-23 08:01:00,17.7,10.0,24.98,WNW,293,4.0,9.0,73,0.00,,,0.00,weatherlink.com 1.10,2013-02-23 15:01:00,
2013-02-23 08:16:00,18.3,11.0,24.98,West,273,4.0,7.0,73,0.00,,,0.00,weatherlink.com 1.10,2013-02-23 15:16:00,
2013-02-23 08:31:00,21.0,13.0,24.98,NW,307,3.0,5.0,71,0.00,,,0.00,weatherlink.com 1.10,2013-02-23 15:31:00,
2013-02-23 08:46:00,23.3,15.0,24.98,NW,317,1.0,6.0,69,0.00,,,0.00,weatherlink.com 1.10,2013-02-23 15:46:00,
2013-02-23 09:01:00,26.3,16.0,24.98,NW,326,3.0,6.0,64,0.00,,,0.00,weatherlink.com 1.10,2013-02-23 16:01:00,
2013-02-23 09:16:00,28.6,17.0,24.98,WNW,300,4.0,7.0,61,0.00,,,0.00,weatherlink.com 1.10,2013-02-23 16:16:00,
2013-02-23 09:32:00,31.2,17.0,24.98,West,271,2.0,4.0,57,0.00,,,0.00,weatherlink.com 1.10,2013-02-23 16:32:00,
2013-02-23 09:47:00,32.9,17.0,24.98,WNW,290,3.0,8.0,52,0.00,,,0.00,weatherlink.com 1.10,2013-02-23 16:47:00,
2013-02-23 10:02:00,33.7,18.0,24.97,NW,311,2.0,7.0,53,0.00,,,0.00,weatherlink.com 1.10,2013-02-23 17:02:00,
2013-02-23 10:17:00,35.3,18.0,24.97,SW,231,9.0,10.0,49,0.00,,,0.00,weatherlink.com 1.10,2013-02-23 17:17:00,
2013-02-23 10:32:00,36.0,16.0,24.96,SW,231,7.0,13.0,45,0.00,,,0.00,weatherlink.com 1.10,2013-02-23 17:32:00,
2013-02-23 10:47:00,37.6,17.0,24.96,SSW,197,5.0,14.0,43,0.00,,,0.00,weatherlink.com 1.10,2013-02-23 17:47:00,
2013-02-23 11:02:00,38.1,18.0,24.95,WSW,246,12.0,15.0,45,0.00,,,0.00,weatherlink.com 1.10,2013-02-23 18:02:00,
2013-02-23 11:18:00,38.4,15.0,24.95,SSW,203,6.0,14.0,39,0.00,,,0.00,weatherlink.com 1.10,2013-02-23 18:18:00,
2013-02-23 11:33:00,39.2,16.0,24.95,SW,217,7.0,11.0,39,0.01,,,0.01,weatherlink.com 1.10,2013-02-23 18:33:00,
2013-02-23 11:48:00,39.2,17.0,24.94,SW,218,5.0,9.0,40,0.01,,,0.01,weatherlink.com 1.10,2013-02-23 18:48:00,
2013-02-23 12:03:00,40.4,18.0,24.94,WSW,248,7.0,11.0,40,0.01,,,0.01,weatherlink.com 1.10,2013-02-23 19:03:00,
2013-02-23 12:18:00,40.4,16.0,24.93,SW,215,11.0,11.0,38,0.02,,,0.02,weatherlink.com 1.10,2013-02-23 19:18:00,
2013-02-23 12:33:00,40.3,16.0,24.92,South,179,7.0,13.0,38,0.01,,,0.02,weatherlink.com 1.10,2013-02-23 19:33:00,
2013-02-23 12:48:00,40.1,18.0,24.92,SSW,198,4.0,12.0,41,0.01,,,0.02,weatherlink.com 1.10,2013-02-23 19:48:00,
2013-02-23 13:03:00,40.6,20.0,24.92,SSW,211,7.0,10.0,44,0.01,,,0.02,weatherlink.com 1.10,2013-02-23 20:03:00,
2013-02-23 13:18:00,39.9,18.0,24.91,SW,221,10.0,13.0,41,0.00,,,0.02,weatherlink.com 1.10,2013-02-23 20:18:00,
2013-02-23 13:33:00,40.5,18.0,24.91,SW,215,13.0,14.0,40,0.00,,,0.02,weatherlink.com 1.10,2013-02-23 20:33:00,
2013-02-23 13:48:00,39.6,16.0,24.90,SSW,206,4.0,16.0,38,0.00,,,0.02,weatherlink.com 1.10,2013-02-23 20:48:00,
2013-02-23 14:03:00,39.7,19.0,24.89,SW,226,7.0,13.0,43,0.00,,,0.02,weatherlink.com 1.10,2013-02-23 21:03:00,
2013-02-23 14:18:00,40.3,17.0,24.89,SW,228,11.0,13.0,39,0.00,,,0.02,weatherlink.com 1.10,2013-02-23 21:18:00,
2013-02-23 14:33:00,40.9,19.0,24.89,WSW,242,9.0,10.0,42,0.00,,,0.02,weatherlink.com 1.10,2013-02-23 21:33:00,
2013-02-23 14:48:00,40.1,20.0,24.89,SSW,194,2.0,9.0,45,0.00,,,0.02,weatherlink.com 1.10,2013-02-23 21:48:00,
2013-02-23 15:03:00,40.3,20.0,24.89,SSW,211,6.0,10.0,45,0.00,,,0.02,weatherlink.com 1.10,2013-02-23 22:03:00,
2013-02-23 15:18:00,40.6,21.0,24.89,SSE,162,5.0,6.0,45,0.00,,,0.02,weatherlink.com 1.10,2013-02-23 22:18:00,
2013-02-23 15:33:00,40.8,20.0,24.89,WSW,253,7.0,8.0,44,0.00,,,0.02,weatherlink.com 1.10,2013-02-23 22:33:00,
2013-02-23 15:48:00,41.2,18.0,24.89,SSW,212,3.0,9.0,39,0.00,,,0.02,weatherlink.com 1.10,2013-02-23 22:48:00,
2013-02-23 16:03:00,41.1,18.0,24.89,SSW,201,4.0,7.0,40,0.00,,,0.02,weatherlink.com 1.10,2013-02-23 23:03:00,
2013-02-23 16:18:00,41.8,20.0,24.89,West,262,4.0,8.0,42,0.00,,,0.02,weatherlink.com 1.10,2013-02-23 23:18:00,
2013-02-23 16:33:00,41.4,19.0,24.89,SW,224,4.0,7.0,41,0.00,,,0.02,weatherlink.com 1.10,2013-02-23 23:33:00,
2013-02-23 16:49:00,40.2,20.0,24.90,SSW,201,2.0,5.0,45,0.00,,,0.02,weatherlink.com 1.10,2013-02-23 23:49:00,
2013-02-23 17:03:00,38.5,21.0,24.90,SW,229,3.0,8.0,50,0.00,,,0.02,weatherlink.com 1.10,2013-02-24 00:03:00,
2013-02-23 17:18:00,37.0,21.0,24.90,SSE,167,4.0,8.0,52,0.00,,,0.02,weatherlink.com 1.10,2013-02-24 00:18:00,
2013-02-23 17:33:00,36.0,21.0,24.91,SW,228,6.0,6.0,54,0.00,,,0.02,weatherlink.com 1.10,2013-02-24 00:33:00,
2013-02-23 17:48:00,35.6,19.0,24.91,SSW,211,4.0,7.0,52,0.00,,,0.02,weatherlink.com 1.10,2013-02-24 00:48:00,
2013-02-23 18:03:00,34.7,19.0,24.91,SSW,195,4.0,7.0,54,0.00,,,0.02,weatherlink.com 1.10,2013-02-24 01:03:00,
2013-02-23 18:18:00,34.2,20.0,24.91,SW,217,4.0,5.0,56,0.00,,,0.02,weatherlink.com 1.10,2013-02-24 01:18:00,
2013-02-23 18:33:00,34.3,20.0,24.92,SW,214,4.0,5.0,55,0.00,,,0.02,weatherlink.com 1.10,2013-02-24 01:33:00,
2013-02-23 18:48:00,34.3,20.0,24.91,SW,228,1.0,5.0,56,0.00,,,0.02,weatherlink.com 1.10,2013-02-24 01:48:00,
2013-02-23 19:03:00,33.7,21.0,24.92,NNW,330,2.0,3.0,59,0.00,,,0.02,weatherlink.com 1.10,2013-02-24 02:03:00,
2013-02-23 19:18:00,33.1,21.0,24.93,West,281,1.0,4.0,61,0.00,,,0.02,weatherlink.com 1.10,2013-02-24 02:18:00,
2013-02-23 19:33:00,33.2,21.0,24.93,NW,316,1.0,2.0,62,0.00,,,0.02,weatherlink.com 1.10,2013-02-24 02:33:00,
2013-02-23 19:48:00,32.7,23.0,24.93,NNW,327,1.0,3.0,67,0.00,,,0.02,weatherlink.com 1.10,2013-02-24 02:48:00,
2013-02-23 20:03:00,32.7,24.0,24.94,NW,319,1.0,2.0,69,0.00,,,0.02,weatherlink.com 1.10,2013-02-24 03:03:00,
2013-02-23 20:18:00,32.6,24.0,24.94,West,280,0.0,1.0,70,0.00,,,0.02,weatherlink.com 1.10,2013-02-24 03:18:00,
2013-02-23 20:33:00,32.4,23.0,24.95,West,280,1.0,1.0,69,0.00,,,0.02,weatherlink.com 1.10,2013-02-24 03:33:00,
2013-02-23 20:48:00,32.4,23.0,24.95,WNW,294,2.0,2.0,67,0.00,,,0.02,weatherlink.com 1.10,2013-02-24 03:48:00,
2013-02-23 21:03:00,33.0,22.0,24.96,NW,323,1.0,2.0,63,0.00,,,0.02,weatherlink.com 1.10,2013-02-24 04:03:00,
2013-02-23 21:18:00,33.4,22.0,24.95,North,8,3.0,4.0,63,0.00,,,0.02,weatherlink.com 1.10,2013-02-24 04:18:00,
2013-02-23 21:33:00,33.0,23.0,24.96,SE,128,1.0,1.0,67,0.00,,,0.02,weatherlink.com 1.10,2013-02-24 04:33:00,
2013-02-23 21:48:00,32.3,23.0,24.96,WSW,240,0.0,1.0,69,0.00,,,0.02,weatherlink.com 1.10,2013-02-24 04:48:00,
2013-02-23 22:03:00,31.9,23.0,24.96,WSW,240,0.0,1.0,71,0.00,,,0.02,weatherlink.com 1.10,2013-02-24 05:03:00,
2013-02-23 22:18:00,32.0,25.0,24.97,SW,231,1.0,1.0,74,0.00,,,0.02,weatherlink.com 1.10,2013-02-24 05:18:00,
2013-02-23 22:33:00,32.1,24.0,24.97,West,263,1.0,2.0,71,0.00,,,0.02,weatherlink.com 1.10,2013-02-24 05:33:00,
2013-02-23 22:48:00,33.0,24.0,24.97,WNW,285,1.0,2.0,70,0.00,,,0.02,weatherlink.com 1.10,2013-02-24 05:48:00,
2013-02-23 23:03:00,33.7,24.0,24.98,West,263,4.0,8.0,67,0.00,,,0.02,weatherlink.com 1.10,2013-02-24 06:03:00,
2013-02-23 23:19:00,33.5,25.0,24.98,West,262,3.0,8.0,70,0.00,,,0.02,weatherlink.com 1.10,2013-02-24 06:19:00,
2013-02-23 23:34:00,33.5,26.0,24.98,WSW,249,8.0,11.0,73,0.00,,,0.02,weatherlink.com 1.10,2013-02-24 06:34:00,
2013-02-23 23:49:00,33.0,27.0,24.98,WNW,294,6.0,10.0,78,0.00,,,0.02,weatherlink.com 1.10,2013-02-24 06:49:00,